sensor_id;sensor_type;location;lat;lon;timestamp;P1;durP1;ratioP1;P2;durP2;ratioP2
69401;SDS011;56589;51.992;5.924;2022-10-16T00:01:43;7.05;;;2.40;;
69401;SDS011;56589;51.992;5.924;2022-10-16T00:04:09;6.25;;;2.35;;
69401;SDS011;56589;51.992;5.924;2022-10-16T00:06:35;6.47;;;2.53;;
69401;SDS011;56589;51.992;5.924;2022-10-16T00:09:03;7.28;;;2.45;;
69401;SDS011;56589;51.992;5.924;2022-10-16T00:11:31;8.93;;;2.50;;
69401;SDS011;56589;51.992;5.924;2022-10-16T00:13:59;5.95;;;2.10;;
69401;SDS011;56589;51.992;5.924;2022-10-16T00:16:27;5.28;;;2.15;;
69401;SDS011;56589;51.992;5.924;2022-10-16T00:18:54;4.78;;;2.00;;
69401;SDS011;56589;51.992;5.924;2022-10-16T00:21:22;6.13;;;2.33;;
69401;SDS011;56589;51.992;5.924;2022-10-16T00:23:53;9.45;;;2.35;;
69401;SDS011;56589;51.992;5.924;2022-10-16T00:26:23;7.05;;;2.35;;
69401;SDS011;56589;51.992;5.924;2022-10-16T00:28:51;5.53;;;2.13;;
69401;SDS011;56589;51.992;5.924;2022-10-16T00:31:18;7.22;;;2.70;;
69401;SDS011;56589;51.992;5.924;2022-10-16T00:33:46;8.38;;;2.40;;
69401;SDS011;56589;51.992;5.924;2022-10-16T00:36:14;9.80;;;2.72;;
69401;SDS011;56589;51.992;5.924;2022-10-16T00:38:43;8.10;;;2.35;;
69401;SDS011;56589;51.992;5.924;2022-10-16T00:41:10;3.33;;;2.20;;
69401;SDS011;56589;51.992;5.924;2022-10-16T00:43:42;7.75;;;2.72;;
69401;SDS011;56589;51.992;5.924;2022-10-16T00:46:12;5.60;;;2.38;;
69401;SDS011;56589;51.992;5.924;2022-10-16T00:48:43;5.68;;;2.80;;
69401;SDS011;56589;51.992;5.924;2022-10-16T00:51:14;12.65;;;2.53;;
69401;SDS011;56589;51.992;5.924;2022-10-16T00:53:40;3.55;;;2.40;;
69401;SDS011;56589;51.992;5.924;2022-10-16T00:56:06;6.70;;;2.72;;
69401;SDS011;56589;51.992;5.924;2022-10-16T00:58:32;9.80;;;3.10;;
69401;SDS011;56589;51.992;5.924;2022-10-16T01:01:00;7.80;;;2.60;;
69401;SDS011;56589;51.992;5.924;2022-10-16T01:03:27;7.30;;;2.60;;
69401;SDS011;56589;51.992;5.924;2022-10-16T01:06:06;4.53;;;2.45;;
69401;SDS011;56589;51.992;5.924;2022-10-16T01:08:53;6.35;;;2.55;;
69401;SDS011;56589;51.992;5.924;2022-10-16T01:11:38;7.53;;;2.10;;
69401;SDS011;56589;51.992;5.924;2022-10-16T01:14:15;4.15;;;2.60;;
69401;SDS011;56589;51.992;5.924;2022-10-16T01:16:55;4.43;;;2.60;;
69401;SDS011;56589;51.992;5.924;2022-10-16T01:22:38;5.53;;;2.65;;
69401;SDS011;56589;51.992;5.924;2022-10-16T01:25:25;13.27;;;3.40;;
69401;SDS011;56589;51.992;5.924;2022-10-16T01:28:07;5.30;;;2.50;;
69401;SDS011;56589;51.992;5.924;2022-10-16T01:30:40;6.55;;;2.42;;
69401;SDS011;56589;51.992;5.924;2022-10-16T01:33:11;4.45;;;2.38;;
69401;SDS011;56589;51.992;5.924;2022-10-16T01:35:46;8.23;;;2.90;;
69401;SDS011;56589;51.992;5.924;2022-10-16T01:40:52;8.48;;;2.65;;
69401;SDS011;56589;51.992;5.924;2022-10-16T01:43:27;9.18;;;2.55;;
69401;SDS011;56589;51.992;5.924;2022-10-16T01:46:01;7.40;;;2.35;;
69401;SDS011;56589;51.992;5.924;2022-10-16T01:48:28;7.50;;;2.35;;
69401;SDS011;56589;51.992;5.924;2022-10-16T01:50:59;3.85;;;2.33;;
69401;SDS011;56589;51.992;5.924;2022-10-16T01:53:30;5.47;;;2.58;;
69401;SDS011;56589;51.992;5.924;2022-10-16T01:55:57;4.50;;;2.55;;
69401;SDS011;56589;51.992;5.924;2022-10-16T01:58:29;3.80;;;2.42;;
69401;SDS011;56589;51.992;5.924;2022-10-16T02:01:02;6.45;;;2.10;;
69401;SDS011;56589;51.992;5.924;2022-10-16T02:03:34;7.55;;;2.50;;
69401;SDS011;56589;51.992;5.924;2022-10-16T02:06:06;3.73;;;2.23;;
69401;SDS011;56589;51.992;5.924;2022-10-16T02:08:32;3.22;;;2.20;;
69401;SDS011;56589;51.992;5.924;2022-10-16T02:10:59;4.50;;;1.92;;
69401;SDS011;56589;51.992;5.924;2022-10-16T02:13:28;7.30;;;2.20;;
69401;SDS011;56589;51.992;5.924;2022-10-16T02:16:04;4.05;;;2.53;;
69401;SDS011;56589;51.992;5.924;2022-10-16T02:18:31;8.93;;;2.78;;
69401;SDS011;56589;51.992;5.924;2022-10-16T02:20:58;2.83;;;2.20;;
69401;SDS011;56589;51.992;5.924;2022-10-16T02:23:34;4.85;;;2.60;;
69401;SDS011;56589;51.992;5.924;2022-10-16T02:26:12;10.15;;;2.38;;
69401;SDS011;56589;51.992;5.924;2022-10-16T02:28:50;7.47;;;1.92;;
69401;SDS011;56589;51.992;5.924;2022-10-16T02:31:25;3.05;;;1.88;;
69401;SDS011;56589;51.992;5.924;2022-10-16T02:33:58;4.82;;;2.13;;
69401;SDS011;56589;51.992;5.924;2022-10-16T02:36:26;2.42;;;1.63;;
69401;SDS011;56589;51.992;5.924;2022-10-16T02:38:52;8.05;;;2.30;;
69401;SDS011;56589;51.992;5.924;2022-10-16T02:41:20;3.67;;;2.03;;
69401;SDS011;56589;51.992;5.924;2022-10-16T02:43:50;6.10;;;1.80;;
69401;SDS011;56589;51.992;5.924;2022-10-16T02:46:16;4.32;;;2.50;;
69401;SDS011;56589;51.992;5.924;2022-10-16T02:48:43;4.13;;;1.90;;
69401;SDS011;56589;51.992;5.924;2022-10-16T02:51:09;4.72;;;1.67;;
69401;SDS011;56589;51.992;5.924;2022-10-16T02:53:34;3.25;;;1.70;;
69401;SDS011;56589;51.992;5.924;2022-10-16T02:56:00;2.75;;;1.75;;
69401;SDS011;56589;51.992;5.924;2022-10-16T02:58:26;3.45;;;1.83;;
69401;SDS011;56589;51.992;5.924;2022-10-16T03:00:54;4.65;;;1.90;;
69401;SDS011;56589;51.992;5.924;2022-10-16T03:03:22;5.47;;;1.98;;
69401;SDS011;56589;51.992;5.924;2022-10-16T03:05:48;6.22;;;2.10;;
69401;SDS011;56589;51.992;5.924;2022-10-16T03:08:13;4.85;;;1.85;;
69401;SDS011;56589;51.992;5.924;2022-10-16T03:10:39;3.05;;;1.77;;
69401;SDS011;56589;51.992;5.924;2022-10-16T03:13:05;3.25;;;2.00;;
69401;SDS011;56589;51.992;5.924;2022-10-16T03:15:33;4.97;;;1.65;;
69401;SDS011;56589;51.992;5.924;2022-10-16T03:18:02;5.28;;;1.80;;
69401;SDS011;56589;51.992;5.924;2022-10-16T03:20:28;3.20;;;1.60;;
69401;SDS011;56589;51.992;5.924;2022-10-16T03:22:53;3.20;;;1.67;;
69401;SDS011;56589;51.992;5.924;2022-10-16T03:25:21;3.05;;;2.05;;
69401;SDS011;56589;51.992;5.924;2022-10-16T03:27:47;7.53;;;1.98;;
69401;SDS011;56589;51.992;5.924;2022-10-16T03:30:12;2.75;;;1.60;;
69401;SDS011;56589;51.992;5.924;2022-10-16T03:32:38;2.67;;;1.48;;
69401;SDS011;56589;51.992;5.924;2022-10-16T03:35:07;4.25;;;1.92;;
69401;SDS011;56589;51.992;5.924;2022-10-16T03:37:33;7.20;;;1.48;;
69401;SDS011;56589;51.992;5.924;2022-10-16T03:39:59;3.95;;;1.52;;
69401;SDS011;56589;51.992;5.924;2022-10-16T03:42:25;3.28;;;2.03;;
69401;SDS011;56589;51.992;5.924;2022-10-16T03:44:50;4.90;;;1.95;;
69401;SDS011;56589;51.992;5.924;2022-10-16T03:47:16;3.85;;;1.98;;
69401;SDS011;56589;51.992;5.924;2022-10-16T03:49:42;5.82;;;1.52;;
69401;SDS011;56589;51.992;5.924;2022-10-16T03:52:10;2.05;;;1.50;;
69401;SDS011;56589;51.992;5.924;2022-10-16T03:54:36;6.30;;;1.98;;
69401;SDS011;56589;51.992;5.924;2022-10-16T03:57:01;4.47;;;1.88;;
69401;SDS011;56589;51.992;5.924;2022-10-16T03:59:27;6.80;;;2.22;;
69401;SDS011;56589;51.992;5.924;2022-10-16T04:01:53;4.82;;;1.70;;
69401;SDS011;56589;51.992;5.924;2022-10-16T04:04:19;2.97;;;1.70;;
69401;SDS011;56589;51.992;5.924;2022-10-16T04:06:44;3.30;;;1.52;;
69401;SDS011;56589;51.992;5.924;2022-10-16T04:09:13;2.90;;;1.40;;
69401;SDS011;56589;51.992;5.924;2022-10-16T04:11:39;5.32;;;1.83;;
69401;SDS011;56589;51.992;5.924;2022-10-16T04:14:04;3.10;;;2.00;;
69401;SDS011;56589;51.992;5.924;2022-10-16T04:16:30;4.40;;;1.77;;
69401;SDS011;56589;51.992;5.924;2022-10-16T04:18:56;3.78;;;1.70;;
69401;SDS011;56589;51.992;5.924;2022-10-16T04:21:22;6.95;;;1.60;;
69401;SDS011;56589;51.992;5.924;2022-10-16T04:23:47;4.30;;;1.63;;
69401;SDS011;56589;51.992;5.924;2022-10-16T04:26:16;8.40;;;2.08;;
69401;SDS011;56589;51.992;5.924;2022-10-16T04:28:41;4.32;;;2.10;;
69401;SDS011;56589;51.992;5.924;2022-10-16T04:31:08;4.00;;;1.50;;
69401;SDS011;56589;51.992;5.924;2022-10-16T04:33:34;4.63;;;1.60;;
69401;SDS011;56589;51.992;5.924;2022-10-16T04:36:00;3.70;;;1.45;;
69401;SDS011;56589;51.992;5.924;2022-10-16T04:38:28;2.63;;;1.40;;
69401;SDS011;56589;51.992;5.924;2022-10-16T04:40:54;3.50;;;1.33;;
69401;SDS011;56589;51.992;5.924;2022-10-16T04:43:23;4.40;;;1.50;;
69401;SDS011;56589;51.992;5.924;2022-10-16T04:45:49;2.90;;;1.55;;
69401;SDS011;56589;51.992;5.924;2022-10-16T04:48:16;2.88;;;1.50;;
69401;SDS011;56589;51.992;5.924;2022-10-16T04:50:42;2.55;;;1.05;;
69401;SDS011;56589;51.992;5.924;2022-10-16T04:53:08;4.25;;;1.40;;
69401;SDS011;56589;51.992;5.924;2022-10-16T04:55:33;3.13;;;1.65;;
69401;SDS011;56589;51.992;5.924;2022-10-16T04:57:59;2.85;;;1.58;;
69401;SDS011;56589;51.992;5.924;2022-10-16T05:00:28;2.53;;;1.40;;
69401;SDS011;56589;51.992;5.924;2022-10-16T05:02:56;4.85;;;1.77;;
69401;SDS011;56589;51.992;5.924;2022-10-16T05:05:22;5.72;;;1.52;;
69401;SDS011;56589;51.992;5.924;2022-10-16T05:07:47;2.58;;;1.85;;
69401;SDS011;56589;51.992;5.924;2022-10-16T05:10:13;3.10;;;1.55;;
69401;SDS011;56589;51.992;5.924;2022-10-16T05:12:39;3.42;;;1.50;;
69401;SDS011;56589;51.992;5.924;2022-10-16T05:15:05;5.38;;;1.58;;
69401;SDS011;56589;51.992;5.924;2022-10-16T05:17:35;7.05;;;1.95;;
69401;SDS011;56589;51.992;5.924;2022-10-16T05:20:01;3.80;;;1.63;;
69401;SDS011;56589;51.992;5.924;2022-10-16T05:22:30;5.55;;;1.52;;
69401;SDS011;56589;51.992;5.924;2022-10-16T05:24:56;6.88;;;1.65;;
69401;SDS011;56589;51.992;5.924;2022-10-16T05:27:22;4.15;;;1.55;;
69401;SDS011;56589;51.992;5.924;2022-10-16T05:29:48;2.35;;;1.50;;
69401;SDS011;56589;51.992;5.924;2022-10-16T05:32:14;6.15;;;1.52;;
69401;SDS011;56589;51.992;5.924;2022-10-16T05:34:45;3.03;;;1.75;;
69401;SDS011;56589;51.992;5.924;2022-10-16T05:37:11;4.57;;;1.45;;
69401;SDS011;56589;51.992;5.924;2022-10-16T05:39:37;4.32;;;1.33;;
69401;SDS011;56589;51.992;5.924;2022-10-16T05:42:05;3.45;;;1.98;;
69401;SDS011;56589;51.992;5.924;2022-10-16T05:44:32;3.80;;;1.80;;
69401;SDS011;56589;51.992;5.924;2022-10-16T05:47:01;3.53;;;1.70;;
69401;SDS011;56589;51.992;5.924;2022-10-16T05:49:26;4.68;;;1.60;;
69401;SDS011;56589;51.992;5.924;2022-10-16T05:51:55;8.20;;;2.40;;
69401;SDS011;56589;51.992;5.924;2022-10-16T05:54:23;2.22;;;1.60;;
69401;SDS011;56589;51.992;5.924;2022-10-16T05:56:48;3.50;;;2.03;;
69401;SDS011;56589;51.992;5.924;2022-10-16T05:59:14;4.60;;;1.83;;
69401;SDS011;56589;51.992;5.924;2022-10-16T06:01:40;4.63;;;2.05;;
69401;SDS011;56589;51.992;5.924;2022-10-16T06:04:06;4.28;;;1.90;;
69401;SDS011;56589;51.992;5.924;2022-10-16T06:06:33;3.22;;;1.80;;
69401;SDS011;56589;51.992;5.924;2022-10-16T06:09:01;5.13;;;1.77;;
69401;SDS011;56589;51.992;5.924;2022-10-16T06:11:29;3.75;;;2.00;;
69401;SDS011;56589;51.992;5.924;2022-10-16T06:13:58;4.13;;;1.85;;
69401;SDS011;56589;51.992;5.924;2022-10-16T06:16:26;4.63;;;1.65;;
69401;SDS011;56589;51.992;5.924;2022-10-16T06:18:52;4.95;;;1.88;;
69401;SDS011;56589;51.992;5.924;2022-10-16T06:21:21;5.15;;;2.08;;
69401;SDS011;56589;51.992;5.924;2022-10-16T06:23:49;6.63;;;1.77;;
69401;SDS011;56589;51.992;5.924;2022-10-16T06:26:19;4.13;;;1.70;;
69401;SDS011;56589;51.992;5.924;2022-10-16T06:28:48;3.92;;;2.15;;
69401;SDS011;56589;51.992;5.924;2022-10-16T06:31:15;2.15;;;1.50;;
69401;SDS011;56589;51.992;5.924;2022-10-16T06:33:42;3.58;;;1.98;;
69401;SDS011;56589;51.992;5.924;2022-10-16T06:36:09;5.50;;;1.85;;
69401;SDS011;56589;51.992;5.924;2022-10-16T06:38:38;3.17;;;1.60;;
69401;SDS011;56589;51.992;5.924;2022-10-16T06:41:09;3.53;;;1.77;;
69401;SDS011;56589;51.992;5.924;2022-10-16T06:43:42;3.17;;;1.73;;
69401;SDS011;56589;51.992;5.924;2022-10-16T06:46:09;2.95;;;1.77;;
69401;SDS011;56589;51.992;5.924;2022-10-16T06:48:37;5.07;;;2.00;;
69401;SDS011;56589;51.992;5.924;2022-10-16T06:51:04;2.75;;;1.77;;
69401;SDS011;56589;51.992;5.924;2022-10-16T06:53:35;4.00;;;1.90;;
69401;SDS011;56589;51.992;5.924;2022-10-16T06:56:09;3.35;;;1.60;;
69401;SDS011;56589;51.992;5.924;2022-10-16T06:58:36;4.90;;;1.75;;
69401;SDS011;56589;51.992;5.924;2022-10-16T07:01:06;3.22;;;1.77;;
69401;SDS011;56589;51.992;5.924;2022-10-16T07:03:32;3.40;;;1.60;;
69401;SDS011;56589;51.992;5.924;2022-10-16T07:06:01;6.80;;;1.73;;
69401;SDS011;56589;51.992;5.924;2022-10-16T07:08:27;5.53;;;1.52;;
69401;SDS011;56589;51.992;5.924;2022-10-16T07:10:57;3.03;;;1.38;;
69401;SDS011;56589;51.992;5.924;2022-10-16T07:13:24;2.88;;;1.52;;
69401;SDS011;56589;51.992;5.924;2022-10-16T07:15:50;2.53;;;1.80;;
69401;SDS011;56589;51.992;5.924;2022-10-16T07:18:18;3.20;;;1.60;;
69401;SDS011;56589;51.992;5.924;2022-10-16T07:20:44;5.50;;;1.50;;
69401;SDS011;56589;51.992;5.924;2022-10-16T07:23:10;4.90;;;2.00;;
69401;SDS011;56589;51.992;5.924;2022-10-16T07:25:35;3.08;;;1.30;;
69401;SDS011;56589;51.992;5.924;2022-10-16T07:28:01;7.18;;;1.90;;
69401;SDS011;56589;51.992;5.924;2022-10-16T07:30:29;7.13;;;1.80;;
69401;SDS011;56589;51.992;5.924;2022-10-16T07:32:54;4.13;;;1.50;;
69401;SDS011;56589;51.992;5.924;2022-10-16T07:35:23;3.35;;;1.70;;
69401;SDS011;56589;51.992;5.924;2022-10-16T07:37:48;4.50;;;2.08;;
69401;SDS011;56589;51.992;5.924;2022-10-16T07:40:14;6.90;;;1.67;;
69401;SDS011;56589;51.992;5.924;2022-10-16T07:42:42;4.28;;;1.70;;
69401;SDS011;56589;51.992;5.924;2022-10-16T07:45:08;3.55;;;1.65;;
69401;SDS011;56589;51.992;5.924;2022-10-16T07:47:34;6.75;;;1.95;;
69401;SDS011;56589;51.992;5.924;2022-10-16T07:50:00;6.82;;;2.00;;
69401;SDS011;56589;51.992;5.924;2022-10-16T07:52:28;5.13;;;1.83;;
69401;SDS011;56589;51.992;5.924;2022-10-16T07:54:54;3.63;;;1.50;;
69401;SDS011;56589;51.992;5.924;2022-10-16T07:57:20;2.83;;;1.30;;
69401;SDS011;56589;51.992;5.924;2022-10-16T07:59:45;3.72;;;1.92;;
69401;SDS011;56589;51.992;5.924;2022-10-16T08:02:11;5.05;;;1.50;;
69401;SDS011;56589;51.992;5.924;2022-10-16T08:04:37;7.38;;;1.45;;
69401;SDS011;56589;51.992;5.924;2022-10-16T08:07:03;2.35;;;1.40;;
69401;SDS011;56589;51.992;5.924;2022-10-16T08:09:31;8.20;;;1.80;;
69401;SDS011;56589;51.992;5.924;2022-10-16T08:11:57;4.20;;;1.67;;
69401;SDS011;56589;51.992;5.924;2022-10-16T08:14:23;6.03;;;1.73;;
69401;SDS011;56589;51.992;5.924;2022-10-16T08:16:49;4.28;;;1.88;;
69401;SDS011;56589;51.992;5.924;2022-10-16T08:19:14;4.75;;;1.50;;
69401;SDS011;56589;51.992;5.924;2022-10-16T08:21:40;4.28;;;2.00;;
69401;SDS011;56589;51.992;5.924;2022-10-16T08:24:06;5.95;;;1.90;;
69401;SDS011;56589;51.992;5.924;2022-10-16T08:26:34;7.28;;;2.03;;
69401;SDS011;56589;51.992;5.924;2022-10-16T08:29:00;7.05;;;1.50;;
69401;SDS011;56589;51.992;5.924;2022-10-16T08:31:26;8.70;;;1.40;;
69401;SDS011;56589;51.992;5.924;2022-10-16T08:33:51;3.80;;;1.50;;
69401;SDS011;56589;51.992;5.924;2022-10-16T08:36:17;3.80;;;1.35;;
69401;SDS011;56589;51.992;5.924;2022-10-16T08:38:43;7.88;;;1.52;;
69401;SDS011;56589;51.992;5.924;2022-10-16T08:41:19;3.60;;;1.80;;
69401;SDS011;56589;51.992;5.924;2022-10-16T08:44:15;6.15;;;1.55;;
69401;SDS011;56589;51.992;5.924;2022-10-16T08:47:17;3.75;;;1.40;;
69401;SDS011;56589;51.992;5.924;2022-10-16T08:49:53;6.28;;;1.40;;
69401;SDS011;56589;51.992;5.924;2022-10-16T08:52:24;3.08;;;1.50;;
69401;SDS011;56589;51.992;5.924;2022-10-16T08:54:57;2.80;;;1.50;;
69401;SDS011;56589;51.992;5.924;2022-10-16T08:57:25;5.30;;;2.10;;
69401;SDS011;56589;51.992;5.924;2022-10-16T08:59:54;4.38;;;2.05;;
69401;SDS011;56589;51.992;5.924;2022-10-16T09:02:28;7.88;;;1.83;;
69401;SDS011;56589;51.992;5.924;2022-10-16T09:05:02;6.03;;;1.60;;
69401;SDS011;56589;51.992;5.924;2022-10-16T09:07:59;6.30;;;1.77;;
69401;SDS011;56589;51.992;5.924;2022-10-16T09:10:43;5.35;;;1.65;;
69401;SDS011;56589;51.992;5.924;2022-10-16T09:13:23;5.85;;;1.40;;
69401;SDS011;56589;51.992;5.924;2022-10-16T09:15:58;3.90;;;1.25;;
69401;SDS011;56589;51.992;5.924;2022-10-16T09:18:41;4.45;;;1.48;;
69401;SDS011;56589;51.992;5.924;2022-10-16T09:21:19;6.20;;;1.90;;
69401;SDS011;56589;51.992;5.924;2022-10-16T09:23:51;6.93;;;1.40;;
69401;SDS011;56589;51.992;5.924;2022-10-16T09:26:20;3.63;;;1.40;;
69401;SDS011;56589;51.992;5.924;2022-10-16T09:28:46;9.40;;;1.63;;
69401;SDS011;56589;51.992;5.924;2022-10-16T09:31:18;6.30;;;1.38;;
69401;SDS011;56589;51.992;5.924;2022-10-16T09:33:48;6.05;;;1.30;;
69401;SDS011;56589;51.992;5.924;2022-10-16T09:38:46;9.18;;;1.70;;
69401;SDS011;56589;51.992;5.924;2022-10-16T09:41:14;8.27;;;1.77;;
69401;SDS011;56589;51.992;5.924;2022-10-16T09:43:47;9.48;;;1.83;;
69401;SDS011;56589;51.992;5.924;2022-10-16T09:46:24;7.55;;;1.50;;
69401;SDS011;56589;51.992;5.924;2022-10-16T09:48:53;6.18;;;1.58;;
69401;SDS011;56589;51.992;5.924;2022-10-16T09:51:23;6.97;;;1.88;;
69401;SDS011;56589;51.992;5.924;2022-10-16T09:53:54;11.13;;;1.77;;
69401;SDS011;56589;51.992;5.924;2022-10-16T09:56:24;7.75;;;1.90;;
69401;SDS011;56589;51.992;5.924;2022-10-16T09:58:53;6.07;;;1.70;;
69401;SDS011;56589;51.992;5.924;2022-10-16T10:01:38;7.32;;;1.40;;
69401;SDS011;56589;51.992;5.924;2022-10-16T10:04:08;5.05;;;1.25;;
69401;SDS011;56589;51.992;5.924;2022-10-16T10:06:36;13.90;;;2.00;;
69401;SDS011;56589;51.992;5.924;2022-10-16T10:09:15;9.30;;;1.70;;
69401;SDS011;56589;51.992;5.924;2022-10-16T10:11:49;7.57;;;2.03;;
69401;SDS011;56589;51.992;5.924;2022-10-16T10:14:19;7.53;;;2.42;;
69401;SDS011;56589;51.992;5.924;2022-10-16T10:17:06;5.43;;;1.83;;
69401;SDS011;56589;51.992;5.924;2022-10-16T10:19:38;8.07;;;1.88;;
69401;SDS011;56589;51.992;5.924;2022-10-16T10:28:04;5.43;;;1.25;;
69401;SDS011;56589;51.992;5.924;2022-10-16T10:30:50;7.05;;;1.60;;
69401;SDS011;56589;51.992;5.924;2022-10-16T10:33:37;6.18;;;1.45;;
69401;SDS011;56589;51.992;5.924;2022-10-16T10:36:14;11.43;;;1.60;;
69401;SDS011;56589;51.992;5.924;2022-10-16T10:38:54;8.07;;;1.63;;
69401;SDS011;56589;51.992;5.924;2022-10-16T10:41:34;9.65;;;1.65;;
69401;SDS011;56589;51.992;5.924;2022-10-16T10:44:41;9.95;;;1.55;;
69401;SDS011;56589;51.992;5.924;2022-10-16T10:47:28;9.07;;;1.48;;
69401;SDS011;56589;51.992;5.924;2022-10-16T10:50:14;8.52;;;1.35;;
69401;SDS011;56589;51.992;5.924;2022-10-16T10:52:51;14.80;;;1.95;;
69401;SDS011;56589;51.992;5.924;2022-10-16T10:55:27;11.13;;;1.67;;
69401;SDS011;56589;51.992;5.924;2022-10-16T10:58:15;11.45;;;2.00;;
69401;SDS011;56589;51.992;5.924;2022-10-16T11:01:14;10.80;;;1.77;;
69401;SDS011;56589;51.992;5.924;2022-10-16T11:03:58;9.25;;;2.40;;
69401;SDS011;56589;51.992;5.924;2022-10-16T11:06:50;10.80;;;2.00;;
69401;SDS011;56589;51.992;5.924;2022-10-16T11:09:24;8.43;;;1.73;;
69401;SDS011;56589;51.992;5.924;2022-10-16T11:14:30;13.60;;;1.95;;
69401;SDS011;56589;51.992;5.924;2022-10-16T11:17:07;14.45;;;2.00;;
69401;SDS011;56589;51.992;5.924;2022-10-16T11:19:40;9.50;;;2.47;;
69401;SDS011;56589;51.992;5.924;2022-10-16T11:22:17;7.80;;;1.48;;
69401;SDS011;56589;51.992;5.924;2022-10-16T11:24:53;7.38;;;1.50;;
69401;SDS011;56589;51.992;5.924;2022-10-16T11:27:29;11.25;;;1.60;;
69401;SDS011;56589;51.992;5.924;2022-10-16T11:30:04;9.32;;;1.95;;
69401;SDS011;56589;51.992;5.924;2022-10-16T11:32:43;9.98;;;1.50;;
69401;SDS011;56589;51.992;5.924;2022-10-16T11:35:22;8.32;;;1.33;;
69401;SDS011;56589;51.992;5.924;2022-10-16T11:38:04;8.50;;;1.27;;
69401;SDS011;56589;51.992;5.924;2022-10-16T11:40:40;9.88;;;1.83;;
69401;SDS011;56589;51.992;5.924;2022-10-16T11:43:15;10.07;;;1.30;;
69401;SDS011;56589;51.992;5.924;2022-10-16T11:45:51;9.70;;;1.42;;
69401;SDS011;56589;51.992;5.924;2022-10-16T11:48:24;6.18;;;1.55;;
69401;SDS011;56589;51.992;5.924;2022-10-16T11:51:00;8.68;;;1.42;;
69401;SDS011;56589;51.992;5.924;2022-10-16T11:53:44;9.00;;;1.70;;
69401;SDS011;56589;51.992;5.924;2022-10-16T11:56:19;14.02;;;2.85;;
69401;SDS011;56589;51.992;5.924;2022-10-16T11:58:51;12.77;;;1.98;;
69401;SDS011;56589;51.992;5.924;2022-10-16T12:01:27;9.60;;;1.48;;
69401;SDS011;56589;51.992;5.924;2022-10-16T12:04:02;11.73;;;1.52;;
69401;SDS011;56589;51.992;5.924;2022-10-16T12:06:46;7.80;;;1.40;;
69401;SDS011;56589;51.992;5.924;2022-10-16T12:09:22;10.93;;;1.60;;
69401;SDS011;56589;51.992;5.924;2022-10-16T12:11:53;11.60;;;1.83;;
69401;SDS011;56589;51.992;5.924;2022-10-16T12:14:21;8.32;;;1.50;;
69401;SDS011;56589;51.992;5.924;2022-10-16T12:17:02;7.97;;;1.38;;
69401;SDS011;56589;51.992;5.924;2022-10-16T12:19:57;10.75;;;1.50;;
69401;SDS011;56589;51.992;5.924;2022-10-16T12:22:27;7.40;;;1.30;;
69401;SDS011;56589;51.992;5.924;2022-10-16T12:24:58;7.32;;;1.50;;
69401;SDS011;56589;51.992;5.924;2022-10-16T12:27:27;7.93;;;1.52;;
69401;SDS011;56589;51.992;5.924;2022-10-16T12:29:56;8.27;;;1.20;;
69401;SDS011;56589;51.992;5.924;2022-10-16T12:32:29;8.95;;;1.73;;
69401;SDS011;56589;51.992;5.924;2022-10-16T12:35:00;9.75;;;1.33;;
69401;SDS011;56589;51.992;5.924;2022-10-16T12:37:31;13.73;;;1.77;;
69401;SDS011;56589;51.992;5.924;2022-10-16T12:40:11;6.45;;;1.60;;
69401;SDS011;56589;51.992;5.924;2022-10-16T12:42:40;9.68;;;1.55;;
69401;SDS011;56589;51.992;5.924;2022-10-16T12:45:21;7.90;;;2.08;;
69401;SDS011;56589;51.992;5.924;2022-10-16T12:47:53;8.65;;;1.60;;
69401;SDS011;56589;51.992;5.924;2022-10-16T12:50:23;11.68;;;1.70;;
69401;SDS011;56589;51.992;5.924;2022-10-16T12:52:55;9.63;;;1.70;;
69401;SDS011;56589;51.992;5.924;2022-10-16T12:55:27;10.38;;;2.47;;
69401;SDS011;56589;51.992;5.924;2022-10-16T12:58:20;10.13;;;1.65;;
69401;SDS011;56589;51.992;5.924;2022-10-16T13:01:11;6.00;;;1.50;;
69401;SDS011;56589;51.992;5.924;2022-10-16T13:03:59;11.05;;;1.50;;
69401;SDS011;56589;51.992;5.924;2022-10-16T13:06:47;9.38;;;1.85;;
69401;SDS011;56589;51.992;5.924;2022-10-16T13:09:33;10.60;;;1.88;;
69401;SDS011;56589;51.992;5.924;2022-10-16T13:12:25;8.68;;;1.40;;
69401;SDS011;56589;51.992;5.924;2022-10-16T13:15:34;7.28;;;1.65;;
69401;SDS011;56589;51.992;5.924;2022-10-16T13:18:22;6.07;;;1.33;;
69401;SDS011;56589;51.992;5.924;2022-10-16T13:21:14;7.47;;;1.30;;
69401;SDS011;56589;51.992;5.924;2022-10-16T13:23:56;7.40;;;1.38;;
69401;SDS011;56589;51.992;5.924;2022-10-16T13:26:41;9.80;;;1.27;;
69401;SDS011;56589;51.992;5.924;2022-10-16T13:29:17;15.35;;;2.28;;
69401;SDS011;56589;51.992;5.924;2022-10-16T13:31:44;10.27;;;1.65;;
69401;SDS011;56589;51.992;5.924;2022-10-16T13:34:11;7.50;;;1.98;;
69401;SDS011;56589;51.992;5.924;2022-10-16T13:36:43;10.10;;;1.52;;
69401;SDS011;56589;51.992;5.924;2022-10-16T13:39:13;10.38;;;1.70;;
69401;SDS011;56589;51.992;5.924;2022-10-16T13:41:46;10.65;;;1.30;;
69401;SDS011;56589;51.992;5.924;2022-10-16T13:44:31;9.32;;;1.60;;
69401;SDS011;56589;51.992;5.924;2022-10-16T13:47:04;10.88;;;1.38;;
69401;SDS011;56589;51.992;5.924;2022-10-16T13:49:30;5.75;;;1.10;;
69401;SDS011;56589;51.992;5.924;2022-10-16T13:51:56;7.68;;;1.50;;
69401;SDS011;56589;51.992;5.924;2022-10-16T13:54:24;10.50;;;1.40;;
69401;SDS011;56589;51.992;5.924;2022-10-16T13:56:52;7.43;;;1.52;;
69401;SDS011;56589;51.992;5.924;2022-10-16T13:59:24;8.70;;;1.65;;
69401;SDS011;56589;51.992;5.924;2022-10-16T14:02:00;11.88;;;1.77;;
69401;SDS011;56589;51.992;5.924;2022-10-16T14:04:43;9.00;;;1.50;;
69401;SDS011;56589;51.992;5.924;2022-10-16T14:07:11;10.32;;;1.45;;
69401;SDS011;56589;51.992;5.924;2022-10-16T14:09:47;13.05;;;1.58;;
69401;SDS011;56589;51.992;5.924;2022-10-16T14:12:15;7.35;;;1.25;;
69401;SDS011;56589;51.992;5.924;2022-10-16T14:14:42;12.95;;;1.85;;
69401;SDS011;56589;51.992;5.924;2022-10-16T14:17:18;9.73;;;1.38;;
69401;SDS011;56589;51.992;5.924;2022-10-16T14:19:50;10.40;;;1.45;;
69401;SDS011;56589;51.992;5.924;2022-10-16T14:22:26;14.95;;;1.67;;
69401;SDS011;56589;51.992;5.924;2022-10-16T14:24:56;7.82;;;1.60;;
69401;SDS011;56589;51.992;5.924;2022-10-16T14:27:32;6.78;;;1.17;;
69401;SDS011;56589;51.992;5.924;2022-10-16T14:32:56;10.90;;;1.30;;
69401;SDS011;56589;51.992;5.924;2022-10-16T14:35:25;13.07;;;1.90;;
69401;SDS011;56589;51.992;5.924;2022-10-16T14:37:53;9.82;;;1.45;;
69401;SDS011;56589;51.992;5.924;2022-10-16T14:40:25;5.72;;;1.65;;
69401;SDS011;56589;51.992;5.924;2022-10-16T14:42:54;9.73;;;2.30;;
69401;SDS011;56589;51.992;5.924;2022-10-16T14:45:20;7.45;;;1.40;;
69401;SDS011;56589;51.992;5.924;2022-10-16T14:47:53;11.13;;;1.38;;
69401;SDS011;56589;51.992;5.924;2022-10-16T14:52:53;12.60;;;1.52;;
69401;SDS011;56589;51.992;5.924;2022-10-16T14:55:20;8.32;;;1.63;;
69401;SDS011;56589;51.992;5.924;2022-10-16T14:57:46;12.70;;;1.65;;
69401;SDS011;56589;51.992;5.924;2022-10-16T15:00:16;10.25;;;1.40;;
69401;SDS011;56589;51.992;5.924;2022-10-16T15:02:46;8.27;;;1.30;;
69401;SDS011;56589;51.992;5.924;2022-10-16T15:05:19;9.75;;;1.85;;
69401;SDS011;56589;51.992;5.924;2022-10-16T15:07:47;9.52;;;1.95;;
69401;SDS011;56589;51.992;5.924;2022-10-16T15:10:14;8.05;;;1.73;;
69401;SDS011;56589;51.992;5.924;2022-10-16T15:12:41;10.90;;;1.92;;
69401;SDS011;56589;51.992;5.924;2022-10-16T15:18:03;10.13;;;1.85;;
69401;SDS011;56589;51.992;5.924;2022-10-16T15:20:33;8.98;;;2.28;;
69401;SDS011;56589;51.992;5.924;2022-10-16T15:23:01;10.25;;;1.90;;
69401;SDS011;56589;51.992;5.924;2022-10-16T15:25:30;14.32;;;2.38;;
69401;SDS011;56589;51.992;5.924;2022-10-16T15:28:00;11.77;;;1.83;;
69401;SDS011;56589;51.992;5.924;2022-10-16T15:30:28;13.48;;;2.03;;
69401;SDS011;56589;51.992;5.924;2022-10-16T15:32:54;6.93;;;1.50;;
69401;SDS011;56589;51.992;5.924;2022-10-16T15:35:20;6.55;;;1.73;;